Time;durP1;ratioP1;P1;durP2;ratioP2;P2;SDS_P1;SDS_P2;PMS_P1;PMS_P2;Temp;Humidity;BMP_temperature;BMP_pressure;BME280_temperature;BME280_humidity;BME280_pressure;Samples;Min_cycle;Max_cycle;Signal;HPM_P1;HPM_P2
2021/01/04 00:00:47;;;;;;;4.00;1.67;;;14.60;52.60;;;;;;4975955;28;20043;-77
2021/01/04 00:03:28;;;;;;;6.45;1.70;;;14.60;52.60;;;;;;4994709;28;20125;-77
2021/01/04 00:06:23;;;;;;;4.07;1.50;;;14.60;52.60;;;;;;4994643;28;20050;-77
2021/01/04 00:09:27;;;;;;;3.70;1.05;;;14.60;52.60;;;;;;4995586;28;20047;-76
2021/01/04 00:11:59;;;;;;;4.20;1.20;;;14.60;52.60;;;;;;4993619;28;20038;-76
2021/01/04 00:14:38;;;;;;;7.35;1.67;;;14.60;52.70;;;;;;4995232;28;20826;-77
2021/01/04 00:17:27;;;;;;;5.60;1.55;;;14.60;52.70;;;;;;4982370;28;20177;-77
2021/01/04 00:20:07;;;;;;;6.82;1.48;;;14.60;52.70;;;;;;4995323;28;20038;-77
2021/01/04 00:23:02;;;;;;;4.65;1.50;;;14.60;52.70;;;;;;4995385;28;20062;-76
2021/01/04 00:25:28;;;;;;;3.40;1.20;;;14.60;52.70;;;;;;4992668;28;20101;-77
2021/01/04 00:28:05;;;;;;;3.20;1.10;;;14.60;52.80;;;;;;4998257;28;20072;-77
2021/01/04 00:30:40;;;;;;;4.53;1.27;;;14.60;52.70;;;;;;4998975;28;20421;-76
2021/01/04 00:33:14;;;;;;;3.65;1.13;;;14.60;52.70;;;;;;4998009;28;20374;-77
2021/01/04 00:35:40;;;;;;;3.90;1.20;;;14.60;52.80;;;;;;4989792;28;20449;-77
2021/01/04 00:38:30;;;;;;;4.13;1.50;;;14.60;52.80;;;;;;4979058;28;20057;-77
2021/01/04 00:41:32;;;;;;;4.88;1.27;;;14.60;52.60;;;;;;4993577;28;20086;-77
2021/01/04 00:43:58;;;;;;;3.80;1.63;;;14.60;52.60;;;;;;4979316;28;20043;-76
2021/01/04 00:46:40;;;;;;;5.38;1.50;;;14.60;52.70;;;;;;4990102;28;20357;-76
2021/01/04 00:49:15;;;;;;;4.95;1.60;;;14.60;52.70;;;;;;4998335;28;20058;-76
2021/01/04 00:52:05;;;;;;;4.35;1.42;;;14.60;52.70;;;;;;4996192;28;20050;-77
2021/01/04 00:55:01;;;;;;;4.43;1.10;;;14.60;53.00;;;;;;4998253;28;20492;-77
2021/01/04 00:57:55;;;;;;;3.90;1.38;;;14.60;52.80;;;;;;4976843;28;20481;-76
2021/01/04 01:00:25;;;;;;;7.47;1.15;;;14.60;52.80;;;;;;4979342;28;20393;-77
2021/01/04 01:03:00;;;;;;;4.07;1.55;;;14.70;52.90;;;;;;4992836;28;20056;-77
2021/01/04 01:05:36;;;;;;;4.65;1.33;;;14.70;53.00;;;;;;4997143;28;20180;-77
2021/01/04 01:08:07;;;;;;;4.75;1.17;;;14.70;53.00;;;;;;4998095;28;20054;-77
2021/01/04 01:11:02;;;;;;;2.83;1.38;;;14.70;52.80;;;;;;5013156;28;20387;-76
2021/01/04 01:13:33;;;;;;;5.43;1.75;;;14.70;52.80;;;;;;4994080;28;20066;-77
2021/01/04 01:16:18;;;;;;;3.78;1.20;;;14.70;52.80;;;;;;4996029;28;20046;-76
2021/01/04 01:19:29;;;;;;;3.38;1.10;;;14.70;52.90;;;;;;4997699;28;20049;-77
2021/01/04 01:21:56;;;;;;;4.22;1.50;;;14.70;52.80;;;;;;4988769;28;20077;-77
2021/01/04 01:24:24;;;;;;;4.22;1.35;;;14.70;52.80;;;;;;4979938;28;20046;-77
2021/01/04 01:26:59;;;;;;;4.50;1.52;;;14.70;52.70;;;;;;4982948;28;20453;-77
2021/01/04 01:29:59;;;;;;;2.90;1.15;;;14.70;52.70;;;;;;4993792;28;20073;-77
2021/01/04 01:32:56;;;;;;;5.78;1.70;;;14.70;52.60;;;;;;4991959;28;20047;-76
2021/01/04 01:35:38;;;;;;;6.22;1.52;;;14.70;52.60;;;;;;4993155;28;20417;-77
2021/01/04 01:38:37;;;;;;;3.47;1.15;;;14.70;52.70;;;;;;4977878;28;20046;-77
2021/01/04 01:41:09;;;;;;;3.83;1.55;;;14.70;52.70;;;;;;4977878;28;20078;-76
2021/01/04 01:43:43;;;;;;;5.55;1.77;;;14.70;52.60;;;;;;4978520;28;20038;-76
2021/01/04 01:46:19;;;;;;;5.15;1.33;;;14.70;52.50;;;;;;4977687;28;20058;-77
2021/01/04 01:49:06;;;;;;;4.30;1.30;;;14.70;52.60;;;;;;4977932;28;20062;-77
2021/01/04 01:51:45;;;;;;;4.38;1.10;;;14.80;52.60;;;;;;4977858;28;20105;-77
2021/01/04 01:54:29;;;;;;;5.25;1.58;;;14.70;52.60;;;;;;4990301;28;20073;-77
2021/01/04 01:57:07;;;;;;;;;;;14.70;52.60;;;;;;4997312;28;20046;-76
2021/01/04 01:59:39;;;;;;;6.97;1.50;;;14.70;52.70;;;;;;4995288;28;19921;-77
2021/01/04 02:02:22;;;;;;;7.97;1.38;;;14.70;52.60;;;;;;4996606;28;20464;-77
2021/01/04 02:04:59;;;;;;;3.15;1.20;;;14.70;52.60;;;;;;4995764;28;20121;-77
2021/01/04 02:07:34;;;;;;;4.38;1.58;;;14.70;52.60;;;;;;4989742;28;20061;-77
2021/01/04 02:10:11;;;;;;;2.92;1.15;;;14.70;52.60;;;;;;4978150;28;20034;-77
2021/01/04 02:12:40;;;;;;;3.17;1.33;;;14.70;52.50;;;;;;4978201;28;20061;-77
2021/01/04 02:15:15;;;;;;;4.18;1.73;;;14.70;52.50;;;;;;4996404;28;20051;-77
2021/01/04 02:17:59;;;;;;;5.55;1.42;;;14.70;52.50;;;;;;4996696;28;20053;-77
2021/01/04 02:21:22;;;;;;;6.68;1.20;;;14.70;52.40;;;;;;4996460;28;20046;-76
2021/01/04 02:24:10;;;;;;;3.83;1.52;;;14.70;52.50;;;;;;4922953;29;20067;-77
2021/01/04 02:26:41;;;;;;;5.68;1.45;;;14.70;52.50;;;;;;4917303;29;20422;-77
2021/01/04 02:29:26;;;;;;;5.80;1.60;;;14.70;52.50;;;;;;4956556;28;20066;-77
2021/01/04 02:31:55;;;;;;;3.70;1.17;;;14.70;52.40;;;;;;4988670;28;20488;-77
2021/01/04 02:34:27;;;;;;;4.03;1.35;;;14.70;52.50;;;;;;4995270;28;20069;-77
2021/01/04 02:36:55;;;;;;;3.60;1.00;;;14.70;52.60;;;;;;4979328;28;20093;-77
2021/01/04 02:39:47;;;;;;;5.32;1.38;;;14.70;52.40;;;;;;4977786;28;20401;-77
2021/01/04 02:42:18;;;;;;;6.10;1.58;;;14.70;52.40;;;;;;4980482;28;20072;-77
2021/01/04 02:44:45;;;;;;;4.70;1.45;;;14.70;52.50;;;;;;4977039;28;20113;-77
2021/01/04 02:47:21;;;;;;;5.68;1.80;;;14.60;52.50;;;;;;4976042;28;20063;-77
2021/01/04 02:50:09;;;;;;;4.20;1.73;;;14.60;52.60;;;;;;4976936;28;20182;-77
2021/01/04 02:52:50;;;;;;;3.95;1.25;;;14.60;52.60;;;;;;4977817;28;20508;-77
2021/01/04 02:55:42;;;;;;;3.28;1.35;;;14.60;52.50;;;;;;4976578;28;20373;-77
2021/01/04 02:58:08;;;;;;;4.75;1.95;;;14.60;52.50;;;;;;4976605;28;20061;-76
2021/01/04 03:00:35;;;;;;;4.82;1.45;;;14.60;52.40;;;;;;4976788;28;20046;-77
2021/01/04 03:03:04;;;;;;;6.43;1.50;;;14.60;52.50;;;;;;4992489;28;20429;-77
2021/01/04 03:05:30;;;;;;;3.92;1.40;;;14.60;52.50;;;;;;4996617;28;20046;-76
2021/01/04 03:08:00;;;;;;;2.22;1.00;;;14.60;52.50;;;;;;4995486;28;20054;-77
2021/01/04 03:10:38;;;;;;;4.15;1.20;;;14.60;52.60;;;;;;4995780;28;20404;-77
2021/01/04 03:13:42;;;;;;;3.28;1.20;;;14.60;52.60;;;;;;4994881;28;20054;-77
2021/01/04 03:16:08;;;;;;;;;;;14.60;52.50;;;;;;4995765;28;20064;-76
2021/01/04 03:18:39;;;;;;;5.45;1.42;;;14.60;52.60;;;;;;4993626;28;20388;-77
2021/01/04 03:21:06;;;;;;;5.25;1.23;;;14.60;52.60;;;;;;4995767;28;20070;-77
2021/01/04 03:23:33;;;;;;;4.63;1.20;;;14.60;52.60;;;;;;4981520;28;20051;-77
2021/01/04 03:26:09;;;;;;;3.50;1.05;;;14.60;52.50;;;;;;4976453;28;20354;-77
2021/01/04 03:28:37;;;;;;;4.57;1.50;;;14.60;52.40;;;;;;4976017;28;20046;-77
2021/01/04 03:31:05;;;;;;;2.85;1.20;;;14.60;52.40;;;;;;4986980;28;20361;-77
2021/01/04 03:33:32;;;;;;;5.47;1.85;;;14.60;52.40;;;;;;4994724;28;20066;-77
2021/01/04 03:35:58;;;;;;;4.32;1.48;;;14.60;52.30;;;;;;4995394;28;20412;-77
2021/01/04 03:38:25;;;;;;;4.05;1.40;;;14.50;52.40;;;;;;4995644;28;20108;-77
2021/01/04 03:40:51;;;;;;;4.55;1.60;;;14.50;52.30;;;;;;4993409;28;20046;-77
2021/01/04 03:43:17;;;;;;;4.70;1.33;;;14.50;52.20;;;;;;4983669;28;20054;-77
2021/01/04 03:45:44;;;;;;;4.60;1.52;;;14.60;52.30;;;;;;4976418;28;20043;-77
2021/01/04 03:48:11;;;;;;;3.97;1.33;;;14.50;52.40;;;;;;4976509;28;20135;-77
2021/01/04 03:50:36;;;;;;;6.57;1.70;;;14.50;52.30;;;;;;4976207;28;20043;-77
2021/01/04 03:53:04;;;;;;;5.88;1.40;;;14.60;52.40;;;;;;4985192;28;20457;-77
2021/01/04 03:55:30;;;;;;;4.05;1.50;;;14.50;52.40;;;;;;4993539;28;20365;-76
2021/01/04 03:57:56;;;;;;;4.80;1.73;;;14.50;52.30;;;;;;4992505;28;20050;-76
2021/01/04 04:00:22;;;;;;;6.88;1.83;;;14.50;52.40;;;;;;4978463;28;20062;-77
2021/01/04 04:02:49;;;;;;;4.95;1.45;;;14.50;52.30;;;;;;4995697;28;20043;-77
2021/01/04 04:05:17;;;;;;;4.15;1.52;;;14.50;52.30;;;;;;4998997;28;20062;-77
2021/01/04 04:07:44;;;;;;;4.22;1.75;;;14.50;52.30;;;;;;4998205;28;20066;-77
2021/01/04 04:10:11;;;;;;;4.35;1.33;;;14.50;52.30;;;;;;4979543;28;20057;-77
2021/01/04 04:12:37;;;;;;;4.85;1.50;;;14.50;52.20;;;;;;4979893;28;20102;-77
2021/01/04 04:15:05;;;;;;;5.10;1.40;;;14.50;52.20;;;;;;4979254;28;20073;-76
2021/01/04 04:17:31;;;;;;;4.20;1.35;;;14.50;52.30;;;;;;4988735;28;20377;-77
2021/01/04 04:19:57;;;;;;;6.07;1.30;;;14.50;52.20;;;;;;4980750;28;20077;-77
2021/01/04 04:22:23;;;;;;;4.63;1.42;;;14.50;52.30;;;;;;4979351;28;20051;-77
2021/01/04 04:24:49;;;;;;;3.42;1.35;;;14.50;52.20;;;;;;4985565;28;20053;-76
2021/01/04 04:27:15;;;;;;;3.15;1.25;;;14.50;52.20;;;;;;4997403;28;20107;-76
2021/01/04 04:29:43;;;;;;;6.57;1.60;;;14.50;52.20;;;;;;4982690;28;20113;-77
2021/01/04 04:32:09;;;;;;;5.75;1.00;;;14.50;52.10;;;;;;4980162;28;20043;-76
2021/01/04 04:34:37;;;;;;;5.22;1.50;;;14.50;52.00;;;;;;4983246;28;20038;-77
2021/01/04 04:37:04;;;;;;;4.03;1.00;;;14.50;52.00;;;;;;4995370;28;20066;-77
2021/01/04 04:39:29;;;;;;;4.05;1.20;;;14.50;52.10;;;;;;4992292;28;20125;-77
2021/01/04 04:41:55;;;;;;;7.20;1.33;;;14.50;52.10;;;;;;4998563;28;20518;-77
2021/01/04 04:44:36;;;;;;;2.70;1.23;;;14.50;52.10;;;;;;4998232;28;20057;-76
2021/01/04 04:47:10;;;;;;;3.17;0.95;;;14.50;52.00;;;;;;4996563;28;20066;-77
2021/01/04 04:49:46;;;;;;;2.90;1.10;;;14.50;52.00;;;;;;4983502;28;20050;-77
2021/01/04 04:52:30;;;;;;;4.35;0.93;;;14.50;52.00;;;;;;4978831;28;20067;-76
2021/01/04 04:55:08;;;;;;;;;;;14.50;52.00;;;;;;4987226;28;20085;-76
2021/01/04 04:57:43;;;;;;;5.00;1.02;;;14.50;52.10;;;;;;4998331;28;19949;-76
2021/01/04 05:00:36;;;;;;;3.58;0.85;;;14.50;52.00;;;;;;4979247;28;20050;-76
2021/01/04 05:03:25;;;;;;;3.85;1.08;;;14.50;52.00;;;;;;4995490;28;20082;-77
2021/01/04 05:06:23;;;;;;;2.30;0.88;;;14.50;52.00;;;;;;4997528;28;20046;-77
2021/01/04 05:09:14;;;;;;;4.40;0.95;;;14.50;52.10;;;;;;4997442;28;20141;-77
2021/01/04 05:11:43;;;;;;;7.00;1.25;;;14.50;52.20;;;;;;4997235;28;20057;-75
2021/01/04 05:14:17;;;;;;;4.07;1.17;;;14.50;52.40;;;;;;4994212;28;20046;-77
2021/01/04 05:17:01;;;;;;;4.60;1.25;;;14.50;52.90;;;;;;4998429;28;20066;-77
2021/01/04 05:19:27;;;;;;;2.35;0.80;;;14.50;53.00;;;;;;4996886;28;20046;-77
2021/01/04 05:22:36;;;;;;;5.78;1.10;;;14.60;53.20;;;;;;4993852;28;20149;-77
2021/01/04 05:25:07;;;;;;;3.90;0.80;;;14.60;53.10;;;;;;4974083;28;20050;-77
2021/01/04 05:27:53;;;;;;;5.13;1.38;;;14.60;53.00;;;;;;4993010;28;20373;-79
2021/01/04 05:30:43;;;;;;;3.30;0.65;;;14.70;53.20;;;;;;4996330;28;20043;-79
2021/01/04 05:33:47;;;;;;;7.10;1.10;;;14.70;53.30;;;;;;4996897;28;20046;-76
2021/01/04 05:36:31;;;;;;;5.45;1.27;;;14.80;53.60;;;;;;4996548;28;20077;-77
2021/01/04 05:39:16;;;;;;;6.13;0.75;;;14.80;53.80;;;;;;4996908;28;20361;-77
2021/01/04 05:42:19;;;;;;;7.53;0.93;;;14.90;54.00;;;;;;4995968;28;20051;-75
2021/01/04 05:45:27;;;;;;;10.63;1.40;;;15.00;54.30;;;;;;4997232;28;20361;-76
2021/01/04 05:48:02;;;;;;;3.75;1.13;;;15.10;54.40;;;;;;4913277;29;20061;-77
2021/01/04 05:50:47;;;;;;;4.57;1.13;;;15.10;54.60;;;;;;4992188;28;20058;-76
2021/01/04 05:53:13;;;;;;;10.65;1.30;;;15.10;54.90;;;;;;4995360;28;20052;-76
2021/01/04 05:55:39;;;;;;;4.57;0.93;;;15.20;55.00;;;;;;4991191;28;20038;-76
2021/01/04 05:58:19;;;;;;;7.63;1.10;;;15.20;55.10;;;;;;4993968;28;20425;-77
2021/01/04 06:00:45;;;;;;;7.88;1.42;;;15.30;55.70;;;;;;4995594;28;20077;-77
2021/01/04 06:03:18;;;;;;;4.18;0.82;;;15.30;55.90;;;;;;4996364;28;20049;-76
2021/01/04 06:05:45;;;;;;;6.50;1.35;;;15.40;56.10;;;;;;4995516;28;20129;-77
2021/01/04 06:08:26;;;;;;;6.80;1.20;;;15.50;56.00;;;;;;4994552;28;20042;-76
2021/01/04 06:11:10;;;;;;;3.20;0.70;;;15.60;56.00;;;;;;4996302;28;20046;-76
2021/01/04 06:13:44;;;;;;;5.13;0.80;;;15.60;56.10;;;;;;4996092;28;20046;-77
2021/01/04 06:16:25;;;;;;;6.97;1.08;;;15.70;56.40;;;;;;4993658;28;20497;-78
2021/01/04 06:19:07;;;;;;;5.00;0.70;;;15.80;56.10;;;;;;4995573;28;20042;-78
2021/01/04 06:21:50;;;;;;;3.85;0.70;;;15.80;55.70;;;;;;4994430;28;20365;-76
2021/01/04 06:24:32;;;;;;;3.80;0.63;;;15.80;55.60;;;;;;4995396;28;20077;-75
2021/01/04 06:27:20;;;;;;;9.95;1.05;;;15.80;55.60;;;;;;4998759;28;20039;-76
2021/01/04 06:29:49;;;;;;;6.07;0.80;;;15.90;55.80;;;;;;4990556;28;20062;-77
2021/01/04 06:32:20;;;;;;;3.45;0.68;;;15.90;55.70;;;;;;4994625;28;20349;-77
2021/01/04 06:34:53;;;;;;;5.03;1.25;;;15.90;55.70;;;;;;4994491;28;20434;-77
2021/01/04 06:37:23;;;;;;;2.60;0.68;;;16.00;55.80;;;;;;4976182;28;20071;-77
2021/01/04 06:40:01;;;;;;;2.83;0.40;;;16.00;55.80;;;;;;4993286;28;20454;-77
2021/01/04 06:42:32;;;;;;;4.25;0.43;;;16.00;56.20;;;;;;4994328;28;20052;-76
2021/01/04 06:45:25;;;;;;;4.15;0.68;;;16.10;56.30;;;;;;4992932;28;20065;-78
2021/01/04 06:48:14;;;;;;;5.72;0.60;;;16.10;56.40;;;;;;4998251;28;20488;-80
2021/01/04 06:51:06;;;;;;;8.05;0.70;;;16.20;56.50;;;;;;4965648;28;20058;-80
2021/01/04 06:53:32;;;;;;;13.38;0.73;;;16.30;56.60;;;;;;4973591;28;20369;-77
2021/01/04 06:56:20;;;;;;;6.75;0.70;;;16.20;56.10;;;;;;4976371;28;20046;-76
2021/01/04 06:58:55;;;;;;;9.90;1.55;;;16.30;56.10;;;;;;4979313;28;20054;-75
2021/01/04 07:01:42;;;;;;;13.73;1.05;;;16.30;56.40;;;;;;5010949;28;20050;-77
2021/01/04 07:04:29;;;;;;;8.32;0.80;;;16.40;56.50;;;;;;4996000;28;20350;-75
2021/01/04 07:07:10;;;;;;;11.38;1.20;;;16.40;56.40;;;;;;4996085;28;20054;-75
2021/01/04 07:10:00;;;;;;;6.80;0.80;;;16.50;56.50;;;;;;4985075;28;20347;-77
2021/01/04 07:12:38;;;;;;;6.82;1.17;;;16.50;55.80;;;;;;4976677;28;20078;-75
2021/01/04 07:15:26;;;;;;;11.63;0.98;;;16.60;56.10;;;;;;4976265;28;20046;-76
2021/01/04 07:18:02;;;;;;;7.72;0.95;;;16.50;56.10;;;;;;4988918;28;20369;-78
2021/01/04 07:20:38;;;;;;;10.02;0.90;;;16.50;56.00;;;;;;4995221;28;20069;-78
2021/01/04 07:23:42;;;;;;;10.00;0.95;;;16.50;56.20;;;;;;4994914;28;20038;-77
2021/01/04 07:26:11;;;;;;;7.97;1.15;;;16.50;56.00;;;;;;4907176;29;20047;-77
2021/01/04 07:28:55;;;;;;;8.07;0.88;;;16.50;56.10;;;;;;4983237;28;20050;-77
2021/01/04 07:31:39;;;;;;;13.27;1.17;;;16.60;56.10;;;;;;4994432;28;20069;-77
2021/01/04 07:34:27;;;;;;;15.55;1.08;;;16.60;56.10;;;;;;4998397;28;20039;-77
2021/01/04 07:37:19;;;;;;;9.13;1.23;;;16.60;56.00;;;;;;4993434;28;20111;-79
2021/01/04 07:39:51;;;;;;;8.13;1.08;;;16.60;56.00;;;;;;4989722;28;20058;-78
2021/01/04 07:42:52;;;;;;;7.82;1.13;;;16.60;56.00;;;;;;4997959;28;20050;-77
2021/01/04 07:45:23;;;;;;;10.73;0.75;;;16.60;55.10;;;;;;4997564;28;20069;-77
2021/01/04 07:48:28;;;;;;;10.57;1.13;;;16.50;55.00;;;;;;4999521;28;20050;-76
2021/01/04 07:51:39;;;;;;;7.65;1.23;;;16.50;55.40;;;;;;4976125;28;20137;-77
2021/01/04 07:54:35;;;;;;;8.45;0.50;;;16.40;55.50;;;;;;5006325;28;20074;-76
2021/01/04 07:57:30;;;;;;;8.73;0.95;;;16.30;55.40;;;;;;4997983;28;20053;-77
2021/01/04 08:00:27;;;;;;;5.78;0.77;;;16.30;55.20;;;;;;4997748;28;20472;-79
2021/01/04 08:02:55;;;;;;;11.00;0.93;;;16.30;55.60;;;;;;4997881;28;20046;-78
2021/01/04 08:05:33;;;;;;;8.30;0.65;;;16.30;55.70;;;;;;4988948;28;20038;-79
2021/01/04 08:08:26;;;;;;;11.82;0.88;;;16.30;55.70;;;;;;4980898;28;20058;-79
2021/01/04 08:11:45;;;;;;;8.98;0.70;;;16.30;55.60;;;;;;4998577;28;20097;-78
2021/01/04 08:14:41;;;;;;;8.90;0.98;;;16.30;55.50;;;;;;4975299;28;20061;-78
2021/01/04 08:17:34;;;;;;;17.35;1.40;;;16.40;55.60;;;;;;5000331;28;20109;-78
2021/01/04 08:20:04;;;;;;;9.07;0.60;;;16.40;55.90;;;;;;4997173;28;20093;-78
2021/01/04 08:22:56;;;;;;;5.75;0.77;;;16.40;55.50;;;;;;4980710;28;20066;-78
2021/01/04 08:26:00;;;;;;;7.75;1.08;;;16.40;55.50;;;;;;4988109;28;20042;-78
2021/01/04 08:29:01;;;;;;;12.30;1.00;;;16.40;55.40;;;;;;4997853;28;20062;-78
2021/01/04 08:31:44;;;;;;;8.45;0.75;;;16.40;55.60;;;;;;4998026;28;20050;-78
2021/01/04 08:34:19;;;;;;;4.93;0.60;;;16.50;55.70;;;;;;4998118;28;20050;-77
2021/01/04 08:36:45;;;;;;;13.98;1.10;;;16.40;55.70;;;;;;4997808;28;20042;-77
2021/01/04 08:39:29;;;;;;;15.52;1.10;;;16.50;55.70;;;;;;4997505;28;20116;-78
2021/01/04 08:42:03;;;;;;;12.57;1.10;;;16.50;55.60;;;;;;4997067;28;20526;-77
2021/01/04 08:44:35;;;;;;;9.85;1.30;;;16.60;55.30;;;;;;4997013;28;20121;-77
2021/01/04 08:47:34;;;;;;;16.05;1.00;;;16.50;55.20;;;;;;4997747;28;20061;-77
2021/01/04 08:50:23;;;;;;;8.73;1.23;;;16.60;55.10;;;;;;4988000;28;20125;-77
2021/01/04 08:53:08;;;;;;;9.70;1.52;;;16.70;54.70;;;;;;4977607;28;20067;-77
2021/01/04 08:55:34;;;;;;;13.43;1.45;;;16.60;54.50;;;;;;4994682;28;20053;-76
2021/01/04 08:58:19;;;;;;;9.30;1.15;;;16.60;55.10;;;;;;4997370;28;20078;-77
2021/01/04 09:00:45;;;;;;;7.15;1.58;;;16.70;55.00;;;;;;4997188;28;20142;-76
2021/01/04 09:03:19;;;;;;;11.20;1.67;;;16.70;55.00;;;;;;4997160;28;20047;-77
2021/01/04 09:05:46;;;;;;;13.57;1.63;;;16.60;55.00;;;;;;4997409;28;20133;-77
2021/01/04 09:08:15;;;;;;;11.60;1.40;;;16.60;55.10;;;;;;4999551;28;20352;-77
2021/01/04 09:10:50;;;;;;;10.75;1.85;;;16.60;55.00;;;;;;5002608;28;20046;-76
2021/01/04 09:13:22;;;;;;;13.27;1.42;;;16.70;55.30;;;;;;4995218;28;20062;-78
2021/01/04 09:15:50;;;;;;;11.88;1.38;;;16.70;55.10;;;;;;4994614;28;20126;-76
2021/01/04 09:18:36;;;;;;;10.98;1.67;;;16.70;54.80;;;;;;4982273;28;20047;-78
2021/01/04 09:21:17;;;;;;;8.75;1.05;;;16.70;55.10;;;;;;4994293;28;20362;-77
2021/01/04 09:23:44;;;;;;;10.55;1.15;;;16.60;55.20;;;;;;4969536;28;20047;-77
2021/01/04 09:26:27;;;;;;;13.60;0.93;;;16.70;55.50;;;;;;4989176;28;20042;-77
2021/01/04 09:29:20;;;;;;;21.55;1.20;;;16.80;55.50;;;;;;4985312;28;20178;-76
2021/01/04 09:31:49;;;;;;;14.50;1.13;;;16.80;55.40;;;;;;4975988;28;20047;-77
2021/01/04 09:34:17;;;;;;;12.13;1.17;;;16.90;55.70;;;;;;4995470;28;20147;-77
2021/01/04 09:36:43;;;;;;;15.95;2.10;;;17.00;55.30;;;;;;4996859;28;20042;-77
2021/01/04 09:39:13;;;;;;;14.23;1.70;;;17.00;55.00;;;;;;4992090;28;20065;-77
2021/01/04 09:41:40;;;;;;;10.65;1.27;;;17.10;55.00;;;;;;4997737;28;20050;-78
2021/01/04 09:44:09;;;;;;;11.10;1.17;;;17.10;54.80;;;;;;4995577;28;20549;-77
2021/01/04 09:46:44;;;;;;;12.13;0.90;;;17.10;54.50;;;;;;4989799;28;20043;-77
2021/01/04 09:49:17;;;;;;;6.70;1.23;;;17.10;54.50;;;;;;4977894;28;20055;-78
2021/01/04 09:52:16;;;;;;;15.57;1.75;;;17.10;54.60;;;;;;4985296;28;20113;-80
2021/01/04 09:54:46;;;;;;;10.07;1.70;;;17.00;54.40;;;;;;4979681;28;20358;-80
2021/01/04 09:57:21;;;;;;;11.75;1.42;;;17.00;54.40;;;;;;4996136;28;20099;-79
2021/01/04 09:59:50;;;;;;;8.82;1.63;;;17.00;54.20;;;;;;4967399;28;20073;-79
2021/01/04 10:02:27;;;;;;;14.93;1.35;;;16.90;54.00;;;;;;4985234;28;20091;-79
2021/01/04 10:04:53;;;;;;;9.80;1.38;;;16.90;54.20;;;;;;4996372;28;20050;-79
2021/01/04 10:07:29;;;;;;;9.65;1.73;;;16.90;53.70;;;;;;4992152;28;20051;-80
2021/01/04 10:09:55;;;;;;;15.95;1.58;;;16.80;53.70;;;;;;4996306;28;20054;-79
2021/01/04 10:12:24;;;;;;;12.23;1.55;;;16.80;54.00;;;;;;4994565;28;20067;-80
2021/01/04 10:14:56;;;;;;;12.38;1.15;;;16.90;54.30;;;;;;4996567;28;20081;-79
2021/01/04 10:17:41;;;;;;;20.33;1.98;;;16.90;54.20;;;;;;4996014;28;20050;-78
2021/01/04 10:20:28;;;;;;;19.98;1.90;;;16.90;54.30;;;;;;4974261;28;20130;-78
2021/01/04 10:22:58;;;;;;;14.20;1.50;;;16.90;54.70;;;;;;4983800;28;20046;-78
2021/01/04 10:25:48;;;;;;;16.42;2.20;;;16.90;54.10;;;;;;4994825;28;20476;-78
2021/01/04 10:28:15;;;;;;;13.90;1.35;;;16.90;53.60;;;;;;4994198;28;20042;-78
2021/01/04 10:30:42;;;;;;;17.42;1.55;;;16.90;53.30;;;;;;4996135;28;20132;-78
2021/01/04 10:33:28;;;;;;;7.60;1.45;;;16.90;53.60;;;;;;4996007;28;20073;-78
2021/01/04 10:36:14;;;;;;;17.25;1.50;;;16.90;53.70;;;;;;4989237;28;20038;-79
2021/01/04 10:38:59;;;;;;;9.02;1.42;;;16.90;53.70;;;;;;4980407;28;20086;-77
2021/01/04 10:41:30;;;;;;;14.43;1.45;;;16.90;53.60;;;;;;4978569;28;20062;-79
2021/01/04 10:44:03;;;;;;;19.55;2.20;;;16.90;53.60;;;;;;4991625;28;20057;-78
2021/01/04 10:46:42;;;;;;;12.52;2.05;;;16.90;54.10;;;;;;4995230;28;20492;-79
2021/01/04 10:49:11;;;;;;;12.38;1.80;;;16.90;54.30;;;;;;4995887;28;20125;-79
2021/01/04 10:51:40;;;;;;;13.18;1.17;;;16.90;54.50;;;;;;4982254;28;20461;-79
2021/01/04 10:54:18;;;;;;;10.32;1.80;;;17.00;54.60;;;;;;4976860;28;20047;-78
2021/01/04 10:57:04;;;;;;;18.13;1.80;;;17.00;54.60;;;;;;4976360;28;20043;-79
2021/01/04 10:59:38;;;;;;;20.00;2.85;;;17.00;54.80;;;;;;4976169;28;20057;-80
2021/01/04 11:02:05;;;;;;;13.07;1.45;;;17.00;55.50;;;;;;4987769;28;20088;-78
2021/01/04 11:04:33;;;;;;;13.15;1.13;;;17.00;55.70;;;;;;4995389;28;20050;-77
2021/01/04 11:07:14;;;;;;;10.60;1.40;;;17.00;55.70;;;;;;4988460;28;20070;-79
2021/01/04 11:09:41;;;;;;;19.08;1.65;;;17.00;55.80;;;;;;4991676;28;20050;-78
2021/01/04 11:12:09;;;;;;;14.50;1.77;;;17.00;56.00;;;;;;4993727;28;20058;-78
2021/01/04 11:14:36;;;;;;;13.70;1.58;;;17.00;55.90;;;;;;4976514;28;20456;-78
2021/01/04 11:17:26;;;;;;;14.02;1.48;;;17.00;55.80;;;;;;4976224;28;20056;-78
2021/01/04 11:19:52;;;;;;;17.15;1.88;;;17.00;55.90;;;;;;4981507;28;20050;-79
2021/01/04 11:22:27;;;;;;;12.55;1.27;;;17.00;55.90;;;;;;4991507;28;20043;-78
2021/01/04 11:24:55;;;;;;;6.60;1.10;;;17.00;56.10;;;;;;4976148;28;20051;-78
2021/01/04 11:27:22;;;;;;;10.27;1.65;;;17.00;56.10;;;;;;4986523;28;20050;-78
2021/01/04 11:29:50;;;;;;;15.57;1.92;;;17.00;56.20;;;;;;4993728;28;20058;-78
2021/01/04 11:32:17;;;;;;;12.07;1.42;;;17.00;56.40;;;;;;4994045;28;20050;-78
2021/01/04 11:34:45;;;;;;;9.90;1.40;;;17.00;56.50;;;;;;4995182;28;20042;-78
2021/01/04 11:37:12;;;;;;;12.40;1.70;;;17.00;55.20;;;;;;4995425;28;20050;-78
2021/01/04 11:39:38;;;;;;;11.43;2.30;;;17.00;56.00;;;;;;4995180;28;20046;-77
2021/01/04 11:42:05;;;;;;;11.95;2.05;;;17.00;55.30;;;;;;4993926;28;20113;-79
2021/01/04 11:44:31;;;;;;;15.98;1.50;;;16.90;55.60;;;;;;4978399;28;20457;-78
2021/01/04 11:46:57;;;;;;;17.73;1.67;;;16.90;56.00;;;;;;4995325;28;20096;-79
2021/01/04 11:49:23;;;;;;;16.08;1.88;;;16.90;55.70;;;;;;4995373;28;20050;-78
2021/01/04 11:51:51;;;;;;;17.05;2.30;;;16.90;55.60;;;;;;4984539;28;20346;-79
2021/01/04 11:54:17;;;;;;;22.67;2.22;;;16.80;54.20;;;;;;4989819;28;20136;-79
2021/01/04 11:56:43;;;;;;;19.83;1.85;;;16.70;54.40;;;;;;4995305;28;20043;-79
2021/01/04 11:59:09;;;;;;;12.43;1.33;;;16.60;54.60;;;;;;4995559;28;20045;-79
2021/01/04 12:01:36;;;;;;;15.90;1.88;;;16.60;54.60;;;;;;4994965;28;20045;-79
2021/01/04 12:04:03;;;;;;;11.48;1.63;;;16.60;54.50;;;;;;4994890;28;20042;-79
2021/01/04 12:06:29;;;;;;;11.20;1.10;;;16.60;54.40;;;;;;4995452;28;20357;-79
2021/01/04 12:08:55;;;;;;;11.73;1.30;;;16.50;54.30;;;;;;4994992;28;20050;-79
2021/01/04 12:11:41;;;;;;;7.53;1.15;;;16.50;54.20;;;;;;4981186;28;20120;-79
2021/01/04 12:14:08;;;;;;;9.93;1.73;;;16.50;54.10;;;;;;4995359;28;20038;-79
2021/01/04 12:16:35;;;;;;;7.10;1.20;;;16.50;54.10;;;;;;4994953;28;20112;-79
2021/01/04 12:19:03;;;;;;;9.30;1.10;;;16.50;54.10;;;;;;4994949;28;20126;-79
2021/01/04 12:21:29;;;;;;;4.45;0.68;;;16.40;54.00;;;;;;4992637;28;20053;-79
2021/01/04 12:23:54;;;;;;;24.05;2.10;;;16.50;54.10;;;;;;5012231;28;20121;-79
2021/01/04 12:26:22;;;;;;;12.00;1.58;;;16.40;54.40;;;;;;4997005;28;20038;-79
2021/01/04 12:28:48;;;;;;;17.30;1.70;;;16.50;54.70;;;;;;4996809;28;20054;-77
2021/01/04 12:31:15;;;;;;;13.38;1.58;;;16.50;55.00;;;;;;4998207;28;20082;-79
2021/01/04 12:33:41;;;;;;;9.65;0.80;;;16.50;55.10;;;;;;4998348;28;20094;-79
2021/01/04 12:36:13;;;;;;;16.33;1.42;;;16.60;55.20;;;;;;4996762;28;20053;-79
2021/01/04 12:38:39;;;;;;;11.15;1.30;;;16.60;55.30;;;;;;4998205;28;20109;-79
2021/01/04 12:41:05;;;;;;;9.82;1.00;;;16.70;55.20;;;;;;4997797;28;20146;-79
2021/01/04 12:43:31;;;;;;;6.97;1.05;;;16.70;55.00;;;;;;4969283;28;20061;-79
2021/01/04 12:45:56;;;;;;;11.32;1.17;;;16.70;54.90;;;;;;4979788;28;20042;-79
2021/01/04 12:48:22;;;;;;;3.97;0.65;;;16.70;54.80;;;;;;4979766;28;20042;-79
2021/01/04 12:50:48;;;;;;;8.30;0.88;;;16.70;54.80;;;;;;4980783;28;20374;-79
2021/01/04 12:53:14;;;;;;;7.22;0.60;;;16.70;54.60;;;;;;4980996;28;20049;-79
2021/01/04 12:55:40;;;;;;;6.13;1.10;;;16.70;54.50;;;;;;4998054;28;20039;-80
2021/01/04 12:58:05;;;;;;;3.47;0.75;;;16.70;54.40;;;;;;4995879;28;20481;-79
2021/01/04 13:00:34;;;;;;;4.07;0.60;;;16.70;54.10;;;;;;4998205;28;20097;-79
2021/01/04 13:03:01;;;;;;;6.20;0.90;;;16.70;53.90;;;;;;4998228;28;20354;-79
2021/01/04 13:05:27;;;;;;;10.75;1.10;;;16.70;53.70;;;;;;4995047;28;20054;-80
2021/01/04 13:07:53;;;;;;;7.82;0.60;;;16.60;53.00;;;;;;4985152;28;20031;-81
2021/01/04 13:10:19;;;;;;;4.03;0.70;;;16.70;53.60;;;;;;4993027;28;20453;-80
2021/01/04 13:12:45;;;;;;;9.27;0.52;;;16.70;53.80;;;;;;4996824;28;20042;-81
2021/01/04 13:15:11;;;;;;;3.15;0.57;;;16.70;53.90;;;;;;4983631;28;20065;-80
2021/01/04 13:17:38;;;;;;;2.78;0.40;;;16.60;53.90;;;;;;4994886;28;20042;-80
2021/01/04 13:20:07;;;;;;;3.95;0.43;;;16.80;54.10;;;;;;4997318;28;20050;-81
2021/01/04 13:22:33;;;;;;;4.20;0.50;;;16.80;54.20;;;;;;4964481;28;20042;-80
2021/01/04 13:24:59;;;;;;;3.55;0.60;;;16.80;54.20;;;;;;4978227;28;20042;-82
2021/01/04 13:27:26;;;;;;;2.65;0.50;;;16.80;54.20;;;;;;4984994;28;20042;-82
2021/01/04 13:29:54;;;;;;;4.07;0.30;;;16.80;54.10;;;;;;4994093;28;20058;-81
2021/01/04 13:32:20;;;;;;;3.25;0.40;;;16.90;54.10;;;;;;4963847;28;20058;-82